createdAt,value
2022-12-12T00:00:35.582Z,38.19
2022-12-12T00:03:09.898Z,37.97
2022-12-12T00:05:41.578Z,37.93
2022-12-12T00:08:14.829Z,38.10
2022-12-12T00:10:48.026Z,38.21
2022-12-12T00:13:21.285Z,37.82
2022-12-12T00:15:52.402Z,38.11
2022-12-12T00:18:23.374Z,37.87
2022-12-12T00:20:56.072Z,38.02
2022-12-12T00:23:27.587Z,37.92
2022-12-12T00:26:02.656Z,37.88
2022-12-12T00:28:35.492Z,38.08
2022-12-12T00:31:08.503Z,38.00
2022-12-12T00:33:39.042Z,38.08
2022-12-12T00:36:11.197Z,38.10
2022-12-12T00:38:42.430Z,37.88
2022-12-12T00:41:14.444Z,37.91
2022-12-12T00:43:47.006Z,38.07
2022-12-12T00:46:19.787Z,38.23
2022-12-12T00:48:51.018Z,38.01
2022-12-12T00:51:24.227Z,38.03
2022-12-12T00:53:55.091Z,37.81
2022-12-12T00:56:27.890Z,38.22
2022-12-12T00:59:00.497Z,38.43
2022-12-12T01:01:33.457Z,38.02
2022-12-12T01:04:05.299Z,37.97
2022-12-12T01:06:37.185Z,37.90
2022-12-12T01:09:07.599Z,38.03
2022-12-12T01:11:38.091Z,38.18
2022-12-12T01:14:10.000Z,37.97
2022-12-12T01:16:42.948Z,38.03
2022-12-12T01:19:13.219Z,37.88
2022-12-12T01:21:44.996Z,38.02
2022-12-12T01:24:18.339Z,38.36
2022-12-12T01:26:52.263Z,38.00
2022-12-12T01:29:25.286Z,38.13
2022-12-12T01:31:58.783Z,38.35
2022-12-12T01:34:30.587Z,38.09
2022-12-12T01:37:01.583Z,38.37
2022-12-12T01:39:32.200Z,38.41
2022-12-12T01:42:02.619Z,38.10
2022-12-12T01:44:48.303Z,38.17
2022-12-12T01:47:22.340Z,38.21
2022-12-12T01:49:59.397Z,38.07
2022-12-12T01:52:43.343Z,38.15
2022-12-12T01:55:20.384Z,38.41
2022-12-12T01:57:56.715Z,38.51
2022-12-12T02:00:30.584Z,38.26
2022-12-12T02:03:02.338Z,38.13
2022-12-12T02:05:38.048Z,38.53
2022-12-12T02:08:12.014Z,38.06
2022-12-12T02:10:43.148Z,38.34
2022-12-12T02:13:20.649Z,38.27
2022-12-12T02:16:10.938Z,38.39
2022-12-12T02:18:55.872Z,38.51
2022-12-12T02:21:37.682Z,38.08
2022-12-12T02:25:03.069Z,38.24
2022-12-12T02:28:22.909Z,38.21
2022-12-12T02:31:18.496Z,38.14
2022-12-12T02:34:02.883Z,38.13
2022-12-12T02:36:45.995Z,38.30
2022-12-12T02:39:28.985Z,38.27
2022-12-12T02:42:13.608Z,38.22
2022-12-12T02:44:57.917Z,38.29
2022-12-12T02:47:37.284Z,38.03
2022-12-12T02:50:13.286Z,38.32
2022-12-12T02:52:48.937Z,38.02
2022-12-12T02:55:21.530Z,38.04
2022-12-12T02:57:54.606Z,37.95
2022-12-12T03:00:25.645Z,38.58
2022-12-12T03:03:37.067Z,38.57
2022-12-12T03:07:04.018Z,38.45
2022-12-12T03:09:53.758Z,38.40
2022-12-12T03:12:43.012Z,38.44
2022-12-12T03:15:24.809Z,38.60
2022-12-12T03:18:12.873Z,38.14
2022-12-12T03:20:55.924Z,38.10
2022-12-12T03:23:32.530Z,38.34
2022-12-12T03:26:11.418Z,38.46
2022-12-12T03:28:49.337Z,38.62
2022-12-12T03:31:28.621Z,38.36
2022-12-12T03:34:09.155Z,38.16
2022-12-12T03:36:47.068Z,38.40
2022-12-12T03:39:23.523Z,38.52
2022-12-12T03:42:03.097Z,38.20
2022-12-12T03:44:41.866Z,38.23
2022-12-12T03:47:18.949Z,38.33
2022-12-12T03:49:59.604Z,38.38
2022-12-12T03:52:37.997Z,38.24
2022-12-12T03:55:16.742Z,38.72
2022-12-12T03:57:56.247Z,38.31
2022-12-12T04:00:26.821Z,38.45
2022-12-12T04:03:08.717Z,38.41
2022-12-12T04:06:02.565Z,38.34
2022-12-12T04:08:33.332Z,38.49
2022-12-12T04:11:34.921Z,38.41
2022-12-12T04:14:32.942Z,38.68
2022-12-12T04:17:08.254Z,38.56
2022-12-12T04:20:05.703Z,38.36
2022-12-12T04:23:18.287Z,38.58
2022-12-12T04:26:22.381Z,38.36
2022-12-12T04:29:10.285Z,38.50
2022-12-12T04:31:50.277Z,37.94
2022-12-12T04:34:32.691Z,38.43
2022-12-12T04:37:06.248Z,38.27
2022-12-12T04:39:42.827Z,38.65
2022-12-12T04:42:20.096Z,38.36
2022-12-12T04:44:55.432Z,38.50
2022-12-12T04:47:29.520Z,38.21
2022-12-12T04:50:03.790Z,38.39
2022-12-12T04:52:36.899Z,38.00
2022-12-12T04:55:15.995Z,38.07
2022-12-12T04:57:51.905Z,38.59
2022-12-12T05:00:24.401Z,38.47
2022-12-12T05:03:04.793Z,38.52
2022-12-12T05:05:43.836Z,38.29
2022-12-12T05:08:22.839Z,38.71
2022-12-12T05:10:59.937Z,38.60
2022-12-12T05:13:35.113Z,38.62
2022-12-12T05:16:13.647Z,38.26
2022-12-12T05:18:45.554Z,38.83
2022-12-12T05:21:18.429Z,38.23
2022-12-12T05:23:49.222Z,38.67
2022-12-12T05:26:27.285Z,38.50
2022-12-12T05:29:05.277Z,38.81
2022-12-12T05:31:37.793Z,38.81
2022-12-12T05:34:08.687Z,38.34
2022-12-12T05:36:42.271Z,38.86
2022-12-12T05:39:13.018Z,38.69
2022-12-12T05:41:47.041Z,39.02
2022-12-12T05:44:18.096Z,39.15
2022-12-12T05:46:48.707Z,38.68
2022-12-12T05:49:20.047Z,39.02
2022-12-12T05:51:50.823Z,38.56
2022-12-12T05:54:21.987Z,38.92
2022-12-12T05:56:55.226Z,39.07
2022-12-12T05:59:26.107Z,38.86
2022-12-12T06:01:56.619Z,39.02
2022-12-12T06:04:27.850Z,38.92
2022-12-12T06:07:01.148Z,39.33
2022-12-12T06:09:32.334Z,38.98
2022-12-12T06:12:05.386Z,39.50
2022-12-12T06:14:36.658Z,39.35
2022-12-12T06:17:08.067Z,39.70
2022-12-12T06:19:39.555Z,39.84
2022-12-12T06:22:10.806Z,40.03
2022-12-12T06:24:41.186Z,40.07
2022-12-12T06:27:20.157Z,39.99
2022-12-12T06:29:51.434Z,40.00
2022-12-12T06:32:22.646Z,40.15
2022-12-12T06:34:54.193Z,40.20
2022-12-12T06:37:53.092Z,40.02
2022-12-12T06:40:27.689Z,40.00
2022-12-12T06:43:00.715Z,39.63
2022-12-12T06:45:30.736Z,39.82
2022-12-12T06:48:01.688Z,39.58
2022-12-12T06:50:31.690Z,39.82
2022-12-12T06:53:02.805Z,39.52
2022-12-12T06:55:33.036Z,39.70
2022-12-12T06:58:12.989Z,39.34
2022-12-12T07:00:45.166Z,39.08
2022-12-12T07:03:16.793Z,38.76
2022-12-12T07:05:48.956Z,38.77
2022-12-12T07:08:19.801Z,38.69
2022-12-12T07:10:51.131Z,38.74
2022-12-12T07:13:23.884Z,38.67
2022-12-12T07:15:59.211Z,38.53
2022-12-12T07:18:30.661Z,38.44
2022-12-12T07:21:00.496Z,38.00
2022-12-12T07:23:31.835Z,38.22
2022-12-12T07:26:10.131Z,38.10
2022-12-12T07:28:42.217Z,37.78
2022-12-12T07:31:18.083Z,37.67
2022-12-12T07:33:53.019Z,37.66
2022-12-12T07:36:23.595Z,37.15
2022-12-12T07:38:54.738Z,37.13
2022-12-12T07:41:28.710Z,36.89
2022-12-12T07:44:03.330Z,36.73
2022-12-12T07:46:34.440Z,36.63
2022-12-12T07:49:05.757Z,36.79
2022-12-12T07:51:42.891Z,36.77
2022-12-12T07:54:16.636Z,36.52
2022-12-12T07:56:47.452Z,36.69
2022-12-12T07:59:19.904Z,35.98
2022-12-12T08:01:50.224Z,35.99
2022-12-12T08:04:21.673Z,36.32
2022-12-12T08:07:00.657Z,36.46
2022-12-12T08:09:34.728Z,36.16
2022-12-12T08:12:06.435Z,36.80
2022-12-12T08:14:41.123Z,36.12
2022-12-12T08:17:12.634Z,36.11
2022-12-12T08:19:45.587Z,36.46
2022-12-12T08:22:31.214Z,35.57
2022-12-12T08:25:04.842Z,35.82
2022-12-12T08:27:37.952Z,35.32
2022-12-12T08:30:13.986Z,35.06
2022-12-12T08:32:44.311Z,34.90
2022-12-12T08:35:16.177Z,34.97
2022-12-12T08:37:47.913Z,34.76
2022-12-12T08:40:20.059Z,33.94
2022-12-12T08:43:02.479Z,33.16
2022-12-12T08:45:36.131Z,33.29
2022-12-12T08:48:09.679Z,32.38
2022-12-12T08:50:42.451Z,31.95
2022-12-12T08:53:24.192Z,32.20
2022-12-12T08:55:55.744Z,31.23
2022-12-12T08:58:25.685Z,31.54
2022-12-12T09:00:58.326Z,31.16
2022-12-12T09:03:29.688Z,30.95
2022-12-12T09:06:01.046Z,31.37
2022-12-12T09:08:31.151Z,30.82
2022-12-12T09:11:01.191Z,30.67
2022-12-12T09:13:31.497Z,30.82
2022-12-12T09:16:05.856Z,30.96
2022-12-12T09:18:47.777Z,30.96
2022-12-12T09:21:19.804Z,30.77
2022-12-12T09:23:50.010Z,30.78
2022-12-12T09:26:20.622Z,31.04
2022-12-12T09:28:54.235Z,31.08
2022-12-12T09:31:26.742Z,31.59
2022-12-12T09:34:02.338Z,31.75
2022-12-12T09:36:44.146Z,31.61
2022-12-12T09:39:14.933Z,31.70
2022-12-12T09:41:45.424Z,31.19
2022-12-12T09:44:22.911Z,30.82
2022-12-12T09:46:58.984Z,30.98
2022-12-12T09:49:43.978Z,30.70
2022-12-12T09:52:18.155Z,30.80
2022-12-12T09:54:48.437Z,30.59
2022-12-12T09:57:30.004Z,30.60
2022-12-12T10:00:09.032Z,30.67
2022-12-12T10:03:12.353Z,30.44
2022-12-12T10:06:13.501Z,30.97
2022-12-12T10:08:59.592Z,30.63
2022-12-12T10:11:54.892Z,30.67
2022-12-12T10:14:35.488Z,30.90
2022-12-12T10:17:24.215Z,30.81
2022-12-12T10:20:02.610Z,30.99
2022-12-12T10:22:43.688Z,30.58
2022-12-12T10:25:25.452Z,31.22
2022-12-12T10:28:04.810Z,30.99
2022-12-12T10:30:53.697Z,30.90
2022-12-12T10:33:39.685Z,31.21
2022-12-12T10:36:21.571Z,30.79
2022-12-12T10:39:14.784Z,31.13
2022-12-12T10:41:54.624Z,31.02
2022-12-12T10:44:47.857Z,31.02
2022-12-12T10:47:18.591Z,31.11
2022-12-12T10:50:15.970Z,31.14
2022-12-12T10:52:47.337Z,31.36
2022-12-12T10:55:32.602Z,30.97
2022-12-12T11:01:45.000Z,31.35
2022-12-12T11:04:17.468Z,31.21
2022-12-12T11:06:52.709Z,31.52
2022-12-12T11:09:26.084Z,31.57
2022-12-12T11:12:06.215Z,31.18
2022-12-12T11:14:39.728Z,31.67
2022-12-12T11:17:25.726Z,31.22
2022-12-12T11:19:58.445Z,31.43
2022-12-12T11:22:41.405Z,31.52
2022-12-12T11:25:28.993Z,31.44
2022-12-12T11:28:06.820Z,31.71
2022-12-12T11:30:43.253Z,31.32
2022-12-12T11:33:25.309Z,31.48
2022-12-12T11:35:58.232Z,31.45
2022-12-12T11:38:39.519Z,31.28
2022-12-12T11:41:13.525Z,31.33
2022-12-12T11:44:03.505Z,31.74
2022-12-12T11:46:37.198Z,31.65
2022-12-12T11:49:21.465Z,31.66
2022-12-12T11:52:00.117Z,31.82
2022-12-12T11:54:33.887Z,31.81
2022-12-12T11:57:13.105Z,31.75
2022-12-12T12:00:11.110Z,31.83
2022-12-12T12:03:23.879Z,31.78
2022-12-12T12:06:30.528Z,31.89
2022-12-12T12:09:32.035Z,31.68
2022-12-12T12:12:14.926Z,31.57
2022-12-12T12:15:20.450Z,31.81
2022-12-12T12:18:31.672Z,32.00
2022-12-12T12:21:32.186Z,31.80
2022-12-12T12:24:46.704Z,31.88
2022-12-12T12:27:29.724Z,31.81
2022-12-12T12:30:21.595Z,31.89
2022-12-12T12:33:28.933Z,31.82
2022-12-12T12:36:21.331Z,31.91
2022-12-12T12:39:22.885Z,32.17
2022-12-12T12:42:13.207Z,32.15
2022-12-12T12:44:54.460Z,32.04
2022-12-12T12:47:39.572Z,32.14
2022-12-12T12:50:21.457Z,32.03
2022-12-12T12:53:02.225Z,31.91
2022-12-12T12:55:42.775Z,32.05
2022-12-12T12:58:22.576Z,32.25
2022-12-12T13:01:02.931Z,32.22
2022-12-12T13:03:44.993Z,32.14
2022-12-12T13:06:24.941Z,32.16
2022-12-12T13:09:07.619Z,32.41
2022-12-12T13:11:46.877Z,32.58
2022-12-12T13:14:30.430Z,32.34
2022-12-12T13:17:08.176Z,32.19
2022-12-12T13:19:44.952Z,31.98
2022-12-12T13:22:43.921Z,32.21
2022-12-12T13:25:49.823Z,32.37
2022-12-12T13:28:29.974Z,32.36
2022-12-12T13:31:43.195Z,32.58
2022-12-12T13:34:20.331Z,32.58
2022-12-12T13:36:58.959Z,32.45
2022-12-12T13:39:37.060Z,32.70
2022-12-12T13:42:10.771Z,32.64
2022-12-12T13:44:46.268Z,32.58
2022-12-12T13:48:07.463Z,32.94
2022-12-12T13:50:37.508Z,32.82
2022-12-12T13:53:23.036Z,32.95
2022-12-12T13:56:36.967Z,33.15
2022-12-12T13:59:29.804Z,33.08
2022-12-12T14:02:03.086Z,33.26
2022-12-12T14:04:36.017Z,33.31
2022-12-12T14:07:16.980Z,33.34
2022-12-12T14:09:51.588Z,33.48
2022-12-12T14:12:31.406Z,33.38
2022-12-12T14:15:07.297Z,33.51
2022-12-12T14:17:43.087Z,33.51
2022-12-12T14:20:33.815Z,33.75
2022-12-12T14:23:30.030Z,33.53
2022-12-12T14:26:02.670Z,33.74
2022-12-12T14:28:36.387Z,33.70
2022-12-12T14:31:30.590Z,33.87
2022-12-12T14:34:32.327Z,33.75
2022-12-12T14:37:30.674Z,33.76
2022-12-12T14:40:15.601Z,33.85
2022-12-12T14:43:15.363Z,33.98
2022-12-12T14:46:00.477Z,34.00
2022-12-12T14:48:35.553Z,33.96
2022-12-12T14:51:16.824Z,34.05
2022-12-12T14:54:34.897Z,33.85
2022-12-12T14:57:13.069Z,33.91
2022-12-12T15:00:26.626Z,34.08
2022-12-12T15:03:31.877Z,34.06
2022-12-12T15:06:41.045Z,34.24
2022-12-12T15:09:25.412Z,34.13
2022-12-12T15:11:58.321Z,34.35
2022-12-12T15:14:29.846Z,34.44
2022-12-12T15:17:08.010Z,34.46
2022-12-12T15:19:49.239Z,34.49
2022-12-12T15:22:27.519Z,34.50
2022-12-12T15:24:59.891Z,34.52
2022-12-12T15:27:39.986Z,34.62
2022-12-12T15:30:23.308Z,34.67
2022-12-12T15:32:54.243Z,34.68
2022-12-12T15:35:27.115Z,34.60
2022-12-12T15:38:03.520Z,34.79
2022-12-12T15:40:36.195Z,34.83
2022-12-12T15:43:14.969Z,34.88
2022-12-12T15:45:51.888Z,34.86
2022-12-12T15:48:25.962Z,35.09
2022-12-12T15:51:01.374Z,35.07
2022-12-12T15:53:50.445Z,34.83
2022-12-12T15:56:52.220Z,35.12
2022-12-12T15:59:34.732Z,35.23
2022-12-12T16:02:28.808Z,35.12
2022-12-12T16:05:10.238Z,35.32
2022-12-12T16:07:41.463Z,35.07
2022-12-12T16:10:26.997Z,35.17
2022-12-12T16:13:05.412Z,35.46
2022-12-12T16:15:38.922Z,35.33
2022-12-12T16:18:20.316Z,35.18
2022-12-12T16:20:53.754Z,35.20
2022-12-12T16:23:35.406Z,35.49
2022-12-12T16:26:08.047Z,35.43
2022-12-12T16:28:38.377Z,35.51
2022-12-12T16:31:18.774Z,35.49
2022-12-12T16:33:48.789Z,35.73
2022-12-12T16:36:20.087Z,35.68
2022-12-12T16:38:50.853Z,35.89
2022-12-12T16:41:23.983Z,35.86
2022-12-12T16:43:57.270Z,35.95
2022-12-12T16:46:28.448Z,35.95
2022-12-12T16:49:05.151Z,35.95
2022-12-12T16:51:38.429Z,35.92
2022-12-12T16:54:09.226Z,35.96
2022-12-12T16:56:53.491Z,36.03
2022-12-12T16:59:24.288Z,36.10
2022-12-12T17:01:54.755Z,36.16
2022-12-12T17:04:31.077Z,36.08
2022-12-12T17:07:01.772Z,36.20
2022-12-12T17:09:31.730Z,36.43
2022-12-12T17:12:03.411Z,36.24
2022-12-12T17:14:33.463Z,36.40
2022-12-12T17:17:06.820Z,36.25
2022-12-12T17:19:38.103Z,36.28
2022-12-12T17:22:09.910Z,36.46
2022-12-12T17:24:43.070Z,36.36
2022-12-12T17:27:14.687Z,36.61
2022-12-12T17:29:46.041Z,36.58
2022-12-12T17:32:24.236Z,36.56
2022-12-12T17:34:55.925Z,36.71
2022-12-12T17:37:28.023Z,36.24
2022-12-12T17:39:58.429Z,36.67
2022-12-12T17:42:32.559Z,36.63
2022-12-12T17:45:03.190Z,36.61
2022-12-12T17:47:33.278Z,36.66
2022-12-12T17:50:03.387Z,36.67
2022-12-12T17:52:33.587Z,36.74
2022-12-12T17:55:53.188Z,36.77
2022-12-12T17:57:57.233Z,37.01
2022-12-12T18:00:28.060Z,36.90
2022-12-12T18:03:01.012Z,36.85
2022-12-12T18:05:32.447Z,37.05
2022-12-12T18:08:05.400Z,36.89
2022-12-12T18:10:39.581Z,37.01
2022-12-12T18:13:14.226Z,36.78
2022-12-12T18:15:44.932Z,36.83
2022-12-12T18:18:14.971Z,37.26
2022-12-12T18:21:12.898Z,37.11
2022-12-12T18:23:47.216Z,37.06
2022-12-12T18:26:29.966Z,37.16
2022-12-12T18:29:04.556Z,37.06
2022-12-12T18:31:35.694Z,36.99
2022-12-12T18:34:07.559Z,36.99
2022-12-12T18:39:22.574Z,37.19
2022-12-12T18:41:52.861Z,37.36
2022-12-12T18:44:24.763Z,37.27
2022-12-12T18:46:56.362Z,37.17
2022-12-12T18:49:26.475Z,37.22
2022-12-12T18:52:00.563Z,37.30
2022-12-12T18:54:32.137Z,37.24
2022-12-12T18:57:02.297Z,37.27
2022-12-12T18:59:34.107Z,37.24
2022-12-12T19:02:15.808Z,37.19
2022-12-12T19:04:47.454Z,37.37
2022-12-12T19:07:18.918Z,37.17
2022-12-12T19:09:48.923Z,37.15
2022-12-12T19:12:19.453Z,37.07
2022-12-12T19:15:16.735Z,37.27
2022-12-12T19:17:58.138Z,37.20
2022-12-12T19:20:32.880Z,37.17
2022-12-12T19:23:02.883Z,37.07
2022-12-12T19:25:42.553Z,37.21
2022-12-12T19:28:17.335Z,37.16
2022-12-12T19:30:49.268Z,36.84
2022-12-12T19:33:19.346Z,37.18
2022-12-12T19:35:49.432Z,37.09
2022-12-12T19:38:24.312Z,37.06
2022-12-12T19:40:55.460Z,36.93
2022-12-12T19:43:28.064Z,37.10
2022-12-12T19:46:08.411Z,36.76
2022-12-12T19:48:40.373Z,37.05
2022-12-12T19:51:38.836Z,37.14
2022-12-12T19:54:23.130Z,37.13
2022-12-12T19:56:55.244Z,37.18
2022-12-12T19:59:26.467Z,36.49
2022-12-12T20:02:01.423Z,36.80
2022-12-12T20:04:31.804Z,37.10
2022-12-12T20:07:02.067Z,37.27
2022-12-12T20:09:36.767Z,37.16
2022-12-12T20:12:08.343Z,37.17
2022-12-12T20:14:39.913Z,37.19
2022-12-12T20:17:17.660Z,37.05
2022-12-12T20:19:49.835Z,37.17
2022-12-12T20:22:21.093Z,36.93
2022-12-12T20:24:55.571Z,37.09
2022-12-12T20:27:30.482Z,37.26
2022-12-12T20:30:12.235Z,37.26
2022-12-12T20:32:48.882Z,37.27
2022-12-12T20:35:19.940Z,37.47
2022-12-12T20:37:50.532Z,37.37
2022-12-12T20:40:24.032Z,37.64
2022-12-12T20:43:01.633Z,37.32
2022-12-12T20:45:38.958Z,37.15
2022-12-12T20:48:13.997Z,37.65
2022-12-12T20:50:48.347Z,37.47
2022-12-12T20:53:18.669Z,37.51
2022-12-12T20:55:48.670Z,37.42
2022-12-12T20:58:18.771Z,37.41
2022-12-12T21:00:49.138Z,37.45
2022-12-12T21:03:21.649Z,37.70
2022-12-12T21:05:55.450Z,37.50
2022-12-12T21:08:28.297Z,37.39
2022-12-12T21:10:59.155Z,37.59
2022-12-12T21:13:29.716Z,37.40
2022-12-12T21:16:02.596Z,37.42
2022-12-12T21:18:35.456Z,37.55
2022-12-12T21:21:06.814Z,37.46
2022-12-12T21:23:37.716Z,37.66
2022-12-12T21:26:09.598Z,37.63
2022-12-12T21:28:43.971Z,37.62
2022-12-12T21:31:19.605Z,37.41
2022-12-12T21:33:58.123Z,37.85
2022-12-12T21:36:31.983Z,37.61
2022-12-12T21:39:06.274Z,37.50
2022-12-12T21:41:39.070Z,37.82
2022-12-12T21:44:10.376Z,37.82
2022-12-12T21:46:43.709Z,37.57
2022-12-12T21:49:28.137Z,37.57
2022-12-12T21:52:03.752Z,37.46
2022-12-12T21:54:34.340Z,37.62
2022-12-12T21:57:08.268Z,37.78
2022-12-12T21:59:39.259Z,37.57
2022-12-12T22:02:11.228Z,37.42
2022-12-12T22:04:45.290Z,37.69
2022-12-12T22:07:16.395Z,37.51
2022-12-12T22:09:58.156Z,37.48
2022-12-12T22:12:44.111Z,37.83
2022-12-12T22:15:28.613Z,37.69
2022-12-12T22:17:59.777Z,37.51
2022-12-12T22:20:37.042Z,37.59
2022-12-12T22:23:08.860Z,37.37
2022-12-12T22:25:39.805Z,37.83
2022-12-12T22:28:11.064Z,37.58
2022-12-12T22:30:42.716Z,37.67
2022-12-12T22:33:14.258Z,37.58
2022-12-12T22:35:46.462Z,37.65
2022-12-12T22:38:16.531Z,37.52
2022-12-12T22:40:59.353Z,37.63
2022-12-12T22:43:30.332Z,37.58
2022-12-12T22:46:08.016Z,37.44
2022-12-12T22:48:40.928Z,37.76
2022-12-12T22:51:23.528Z,37.70
2022-12-12T22:53:57.064Z,37.69
2022-12-12T22:56:30.743Z,37.53
2022-12-12T22:59:01.385Z,37.77
2022-12-12T23:01:32.895Z,37.67
2022-12-12T23:04:03.731Z,37.60
2022-12-12T23:06:38.719Z,37.52
2022-12-12T23:09:16.357Z,37.77
2022-12-12T23:12:01.040Z,37.55
2022-12-12T23:14:31.196Z,37.52
2022-12-12T23:17:03.880Z,37.76
2022-12-12T23:19:33.833Z,37.92
2022-12-12T23:22:05.485Z,37.52
2022-12-12T23:24:35.904Z,37.61
2022-12-12T23:27:06.523Z,37.59
2022-12-12T23:29:38.545Z,37.53
2022-12-12T23:32:09.255Z,37.57
2022-12-12T23:34:39.539Z,37.41
2022-12-12T23:37:26.159Z,37.32
2022-12-12T23:39:56.234Z,37.35
2022-12-12T23:42:26.305Z,37.50
2022-12-12T23:44:56.585Z,37.65
2022-12-12T23:47:29.843Z,37.54
2022-12-12T23:50:03.267Z,37.50
2022-12-12T23:52:35.664Z,37.43
2022-12-12T23:55:06.843Z,37.38
2022-12-12T23:57:36.854Z,37.46
